Time;durP1;ratioP1;P1;durP2;ratioP2;P2;SDS_P1;SDS_P2;PMS_P1;PMS_P2;Temp;Humidity;BMP_temperature;BMP_pressure;BME280_temperature;BME280_humidity;BME280_pressure;Samples;Min_cycle;Max_cycle;Signal;HPM_P1;HPM_P2
2021/12/13 00:00:09;;;;;;;109.25;42.30;;;10.40;99.90;;;;;;4991449;28;20125;-47
2021/12/13 00:02:57;;;;;;;113.50;41.25;;;10.30;99.90;;;;;;5001985;28;20050;-48
2021/12/13 00:05:34;;;;;;;117.68;43.95;;;10.30;99.90;;;;;;4960460;28;20092;-45
2021/12/13 00:08:06;;;;;;;109.53;41.33;;;10.30;99.90;;;;;;5010094;28;20070;-60
2021/12/13 00:10:40;;;;;;;97.28;40.13;;;10.30;99.90;;;;;;4992728;28;20061;-60
2021/12/13 00:13:23;;;;;;;98.28;40.70;;;10.30;99.90;;;;;;4992664;28;20053;-60
2021/12/13 00:15:56;;;;;;;95.35;41.45;;;10.30;99.90;;;;;;5010358;28;20058;-60
2021/12/13 00:18:30;;;;;;;97.70;39.10;;;10.30;99.90;;;;;;4992697;28;20046;-60
2021/12/13 00:21:07;;;;;;;94.75;41.25;;;10.30;99.90;;;;;;4978149;28;20066;-60
2021/12/13 00:23:44;;;;;;;98.13;40.90;;;10.30;99.90;;;;;;4990518;28;20097;-61
2021/12/13 00:26:10;;;;;;;90.55;39.30;;;10.30;99.90;;;;;;4973312;28;20049;-60
2021/12/13 00:28:40;;;;;;;83.95;38.25;;;10.30;99.90;;;;;;4990723;28;20046;-60
2021/12/13 00:31:18;;;;;;;86.13;38.75;;;10.30;99.90;;;;;;4973058;28;20101;-60
2021/12/13 00:34:08;;;;;;;94.45;40.13;;;10.30;99.90;;;;;;4990353;28;20128;-60
2021/12/13 00:36:41;;;;;;;81.38;38.33;;;10.30;99.90;;;;;;5003442;28;20050;-60
2021/12/13 00:39:16;;;;;;;89.10;38.67;;;10.30;99.90;;;;;;4989734;28;20465;-60
2021/12/13 00:41:44;;;;;;;98.22;40.63;;;10.40;99.90;;;;;;4988794;28;20092;-61
2021/12/13 00:44:16;;;;;;;114.20;44.05;;;10.40;99.90;;;;;;4955064;28;20062;-61
2021/12/13 00:46:44;;;;;;;;;;;10.40;99.90;;;;;;4986661;28;20061;-60
2021/12/13 00:49:13;;;;;;;109.60;42.55;;;10.40;99.90;;;;;;4947988;28;20301;-60
2021/12/13 00:51:47;;;;;;;122.75;43.55;;;10.30;99.90;;;;;;4980305;28;20045;-45
2021/12/13 00:54:23;;;;;;;114.57;46.72;;;10.40;99.90;;;;;;4975320;28;20074;-47
2021/12/13 00:57:15;;;;;;;110.68;44.63;;;10.40;99.90;;;;;;4986273;28;20058;-46
2021/12/13 00:59:43;;;;;;;;;;;10.40;99.90;;;;;;4969591;28;20454;-47
2021/12/13 01:02:09;;;;;;;115.25;45.85;;;10.40;99.90;;;;;;4977169;28;19922;-46
2021/12/13 01:04:59;;;;;;;106.38;42.20;;;10.40;99.90;;;;;;4990765;28;20453;-59
2021/12/13 01:07:53;;;;;;;114.90;44.65;;;10.40;99.90;;;;;;4956386;28;20073;-48
2021/12/13 01:10:56;;;;;;;106.03;42.65;;;10.40;99.90;;;;;;4990287;28;20054;-48
2021/12/13 01:13:44;;;;;;;93.68;40.47;;;10.30;99.90;;;;;;4972522;28;20494;-61
2021/12/13 01:21:40;;;;;;;90.63;36.42;;;10.30;99.90;;;;;;4982210;28;20109;-59
2021/12/13 01:24:20;;;;;;;68.97;33.85;;;10.30;99.90;;;;;;4953397;28;20051;-60
2021/12/13 01:26:52;;;;;;;70.72;32.35;;;10.30;99.90;;;;;;4970888;28;20046;-60
2021/12/13 01:29:22;;;;;;;72.70;32.65;;;10.30;99.90;;;;;;4952810;28;20065;-60
2021/12/13 01:31:59;;;;;;;77.55;35.25;;;10.40;99.90;;;;;;4990041;28;20049;-60
2021/12/13 01:34:27;;;;;;;65.15;33.95;;;10.40;99.90;;;;;;4972782;28;20046;-60
2021/12/13 01:37:31;;;;;;;73.57;35.90;;;10.40;99.90;;;;;;4972178;28;20062;-60
2021/12/13 01:39:56;;;;;;;84.15;37.08;;;10.40;99.90;;;;;;4985769;28;20054;-61
2021/12/13 01:42:26;;;;;;;82.72;36.25;;;10.40;99.90;;;;;;4972627;28;20058;-60
2021/12/13 01:44:59;;;;;;;84.05;36.78;;;10.40;99.90;;;;;;4972137;28;20054;-60
2021/12/13 01:47:36;;;;;;;65.95;32.97;;;10.40;99.90;;;;;;4939874;28;20135;-61
2021/12/13 01:50:24;;;;;;;59.13;32.33;;;10.40;99.90;;;;;;4940854;28;20050;-61
2021/12/13 01:52:54;;;;;;;69.57;32.30;;;10.40;99.90;;;;;;4990014;28;20603;-61
2021/12/13 01:55:30;;;;;;;67.95;33.00;;;10.30;99.90;;;;;;4972204;28;20058;-60
2021/12/13 01:58:37;;;;;;;66.53;33.65;;;10.40;99.90;;;;;;4972037;28;20054;-48
2021/12/13 02:01:21;;;;;;;78.95;35.92;;;10.40;99.90;;;;;;4970366;28;20062;-47
2021/12/13 02:03:55;;;;;;;67.28;34.33;;;10.40;99.90;;;;;;4982973;28;20116;-45
2021/12/13 02:06:23;;;;;;;66.03;34.38;;;10.30;99.90;;;;;;4953766;28;20057;-46
2021/12/13 02:08:53;;;;;;;74.25;36.13;;;10.40;99.90;;;;;;4989166;28;20085;-45
2021/12/13 02:11:21;;;;;;;66.38;34.75;;;10.40;99.90;;;;;;4967533;28;20051;-59
2021/12/13 02:14:05;;;;;;;62.47;34.30;;;10.30;99.90;;;;;;4972361;28;20168;-61
2021/12/13 02:19:31;;;;;;;67.13;34.67;;;10.30;99.90;;;;;;4971274;28;20054;-47
2021/12/13 02:22:28;;;;;;;66.60;35.28;;;10.30;99.90;;;;;;4994744;28;20497;-60
2021/12/13 02:24:58;;;;;;;68.20;33.97;;;10.30;99.90;;;;;;4993013;28;20062;-60
2021/12/13 02:27:29;;;;;;;68.35;35.45;;;10.30;99.90;;;;;;4995596;28;20064;-61
2021/12/13 02:29:58;;;;;;;67.40;35.30;;;10.30;99.90;;;;;;5012197;28;20515;-45
2021/12/13 02:32:28;;;;;;;68.35;36.13;;;10.30;99.90;;;;;;4994873;28;20053;-45
2021/12/13 02:34:57;;;;;;;79.93;38.00;;;10.30;99.90;;;;;;4995020;28;20053;-47
2021/12/13 02:37:26;;;;;;;79.85;39.53;;;10.30;99.90;;;;;;4985897;28;20057;-61
2021/12/13 02:39:56;;;;;;;71.00;35.75;;;10.30;99.90;;;;;;4977992;28;20096;-61
2021/12/13 02:42:23;;;;;;;65.68;35.67;;;10.30;99.90;;;;;;5011997;28;20068;-48
2021/12/13 02:44:53;;;;;;;74.07;38.00;;;10.30;99.90;;;;;;4994197;28;20116;-47
2021/12/13 02:47:42;;;;;;;67.13;37.15;;;10.30;99.90;;;;;;5012234;28;20065;-47
2021/12/13 02:50:16;;;;;;;65.00;35.53;;;10.30;99.90;;;;;;5011774;28;20050;-47
2021/12/13 02:52:43;;;;;;;57.33;33.72;;;10.30;99.90;;;;;;5011829;28;20054;-45
2021/12/13 02:55:16;;;;;;;55.47;33.45;;;10.30;99.90;;;;;;4993781;28;20054;-49
2021/12/13 02:57:46;;;;;;;57.00;33.67;;;10.30;99.90;;;;;;4994095;28;20142;-47
2021/12/13 03:00:35;;;;;;;59.13;35.03;;;10.30;99.90;;;;;;5012272;28;20058;-48
2021/12/13 03:03:08;;;;;;;55.88;33.00;;;10.30;99.90;;;;;;4993895;28;20085;-48
2021/12/13 03:05:41;;;;;;;57.50;34.20;;;10.30;99.90;;;;;;4961989;28;20050;-46
2021/12/13 03:08:16;;;;;;;49.65;33.53;;;10.20;99.90;;;;;;4993913;28;20054;-47
2021/12/13 03:10:48;;;;;;;62.90;34.50;;;10.20;99.90;;;;;;5010323;28;20082;-60
2021/12/13 03:13:17;;;;;;;54.30;32.70;;;10.20;99.90;;;;;;5006761;28;20443;-45
2021/12/13 03:15:49;;;;;;;51.38;30.15;;;10.20;99.90;;;;;;5010640;28;20069;-61
2021/12/13 03:18:24;;;;;;;49.75;29.25;;;10.20;99.90;;;;;;4992727;28;20050;-44
2021/12/13 03:20:53;;;;;;;53.03;29.05;;;10.20;99.90;;;;;;4968315;28;20101;-45
2021/12/13 03:23:22;;;;;;;46.08;29.17;;;10.20;99.90;;;;;;4990505;28;20050;-46
2021/12/13 03:26:07;;;;;;;40.85;27.75;;;10.10;99.90;;;;;;4955938;28;20061;-60
2021/12/13 03:29:11;;;;;;;42.03;27.20;;;10.10;99.90;;;;;;4956470;28;20051;-45
2021/12/13 03:31:50;;;;;;;48.47;25.90;;;10.10;99.90;;;;;;4974323;28;20129;-49
2021/12/13 03:34:30;;;;;;;44.22;25.48;;;10.10;99.90;;;;;;4992049;28;20058;-46
2021/12/13 03:37:17;;;;;;;45.55;25.52;;;10.00;99.90;;;;;;4991638;28;20050;-48
2021/12/13 03:39:57;;;;;;;36.90;24.83;;;10.00;99.90;;;;;;4976211;28;20390;-49
2021/12/13 03:42:36;;;;;;;32.83;21.95;;;10.00;99.90;;;;;;4974131;28;20093;-47
2021/12/13 03:45:12;;;;;;;34.25;23.13;;;10.00;99.90;;;;;;4991734;28;20058;-46
2021/12/13 03:47:44;;;;;;;31.27;20.42;;;9.90;99.90;;;;;;4991438;28;20054;-45
2021/12/13 03:50:12;;;;;;;;;;;9.90;99.90;;;;;;4958515;28;20086;-61
2021/12/13 03:52:43;;;;;;;29.42;20.67;;;9.90;99.90;;;;;;4991828;28;20381;-60
2021/12/13 03:55:12;;;;;;;32.95;20.80;;;9.80;99.90;;;;;;4957047;28;20050;-61
2021/12/13 03:57:44;;;;;;;30.95;19.40;;;9.80;99.90;;;;;;4981089;28;20184;-61
2021/12/13 04:00:12;;;;;;;33.45;20.58;;;9.70;99.90;;;;;;4990992;28;20093;-60
2021/12/13 04:02:40;;;;;;;35.33;20.55;;;9.70;99.90;;;;;;4957777;28;20667;-61
2021/12/13 04:05:14;;;;;;;34.20;20.42;;;9.60;99.90;;;;;;4958275;28;20039;-60
2021/12/13 04:07:45;;;;;;;34.58;20.55;;;9.60;99.90;;;;;;4990892;28;20054;-46
2021/12/13 04:10:19;;;;;;;29.33;20.27;;;9.60;99.90;;;;;;4957947;28;20397;-45
2021/12/13 04:12:50;;;;;;;32.42;21.08;;;9.60;99.90;;;;;;4991014;28;20541;-45
2021/12/13 04:18:29;;;;;;;29.73;18.85;;;9.60;99.90;;;;;;4990681;28;20114;-61
2021/12/13 04:21:05;;;;;;;31.73;19.00;;;9.50;99.90;;;;;;4956136;28;20087;-61
2021/12/13 04:23:35;;;;;;;29.65;17.98;;;9.50;99.90;;;;;;4972530;28;20057;-46
2021/12/13 04:26:04;;;;;;;31.27;18.02;;;9.60;99.90;;;;;;4972385;28;20050;-45
2021/12/13 04:28:40;;;;;;;28.65;17.38;;;9.50;99.90;;;;;;4972105;28;20042;-46
2021/12/13 04:31:10;;;;;;;29.48;18.85;;;9.50;99.90;;;;;;4950595;28;20057;-47
2021/12/13 04:33:44;;;;;;;30.20;18.55;;;9.50;99.90;;;;;;4988320;28;20062;-45
2021/12/13 04:36:21;;;;;;;31.90;17.90;;;9.50;99.90;;;;;;4956199;28;20054;-45
2021/12/13 04:38:53;;;;;;;30.50;18.42;;;9.50;99.90;;;;;;4971846;28;20050;-60
2021/12/13 04:41:46;;;;;;;29.75;18.83;;;9.40;99.90;;;;;;4955618;28;20050;-61
2021/12/13 04:44:33;;;;;;;30.77;18.38;;;9.40;99.90;;;;;;4979333;28;20438;-46
2021/12/13 04:47:10;;;;;;;29.80;18.48;;;9.40;99.90;;;;;;4990486;28;20054;-60
2021/12/13 04:49:41;;;;;;;30.67;19.38;;;9.40;99.90;;;;;;4995293;28;20092;-62
2021/12/13 04:52:11;;;;;;;29.02;17.30;;;9.40;99.90;;;;;;5009531;28;20116;-61
2021/12/13 04:54:41;;;;;;;28.45;18.60;;;9.40;99.90;;;;;;5000018;28;20050;-61
2021/12/13 04:57:07;;;;;;;30.00;19.15;;;9.40;99.90;;;;;;4958640;28;20093;-62
2021/12/13 04:59:35;;;;;;;29.95;18.00;;;9.40;99.90;;;;;;4953417;28;20054;-45
2021/12/13 05:02:05;;;;;;;28.17;18.08;;;9.40;99.90;;;;;;4975807;28;20490;-46
2021/12/13 05:04:31;;;;;;;31.23;18.67;;;9.40;99.90;;;;;;4959506;28;20061;-46
2021/12/13 05:07:01;;;;;;;24.98;18.35;;;9.40;99.90;;;;;;4970265;28;20125;-49
2021/12/13 05:09:28;;;;;;;32.22;18.48;;;9.40;99.90;;;;;;4986803;28;20081;-46
2021/12/13 05:12:07;;;;;;;30.25;19.10;;;9.40;99.90;;;;;;4955732;28;20050;-60
2021/12/13 05:14:40;;;;;;;29.73;18.25;;;9.40;99.90;;;;;;4980756;28;20088;-62
2021/12/13 05:17:20;;;;;;;30.73;17.35;;;9.40;99.90;;;;;;4990110;28;20073;-46
2021/12/13 05:20:08;;;;;;;29.65;18.23;;;9.30;99.90;;;;;;4990328;28;20050;-51
2021/12/13 05:22:51;;;;;;;30.92;18.17;;;9.30;99.90;;;;;;4972294;28;20050;-49
2021/12/13 05:25:28;;;;;;;26.92;17.38;;;9.30;99.90;;;;;;4990422;28;20389;-47
2021/12/13 05:28:09;;;;;;;26.65;17.52;;;9.30;99.90;;;;;;4972842;28;20555;-47
2021/12/13 05:30:41;;;;;;;26.50;15.90;;;9.30;99.90;;;;;;4989899;28;20051;-46
2021/12/13 05:33:09;;;;;;;24.05;15.45;;;9.30;99.90;;;;;;4971983;28;20058;-46
2021/12/13 05:35:43;;;;;;;21.92;15.65;;;9.20;99.90;;;;;;4988781;28;20417;-46
2021/12/13 05:38:23;;;;;;;24.05;14.50;;;9.30;99.90;;;;;;4986449;28;20054;-46
2021/12/13 05:40:50;;;;;;;21.58;15.20;;;9.30;99.90;;;;;;4988186;28;20464;-45
2021/12/13 05:43:28;;;;;;;22.73;14.45;;;9.30;99.90;;;;;;4954221;28;20125;-61
2021/12/13 05:46:11;;;;;;;23.40;16.00;;;9.30;99.90;;;;;;4955580;28;20062;-62
2021/12/13 05:48:43;;;;;;;26.17;15.75;;;9.30;99.90;;;;;;4986844;28;20078;-61
2021/12/13 05:51:43;;;;;;;24.42;16.30;;;9.30;99.90;;;;;;4979093;28;20077;-46
2021/12/13 05:54:12;;;;;;;29.48;15.98;;;9.30;99.90;;;;;;4971115;28;20109;-46
2021/12/13 05:56:46;;;;;;;25.05;17.85;;;9.30;99.90;;;;;;4974718;28;20046;-46
2021/12/13 05:59:33;;;;;;;28.17;18.45;;;9.20;99.90;;;;;;4991662;28;20088;-61
2021/12/13 06:02:18;;;;;;;29.75;18.15;;;9.20;99.90;;;;;;5003256;28;20043;-46
2021/12/13 06:05:15;;;;;;;28.70;19.10;;;9.20;99.90;;;;;;4960555;28;20051;-61
2021/12/13 06:07:51;;;;;;;28.58;19.60;;;9.20;99.90;;;;;;4965107;28;20058;-61
2021/12/13 06:10:18;;;;;;;29.55;20.73;;;9.20;99.90;;;;;;4957771;28;20517;-48
2021/12/13 06:12:49;;;;;;;30.58;20.40;;;9.20;99.90;;;;;;4958204;28;20053;-47
2021/12/13 06:15:15;;;;;;;33.38;20.98;;;9.20;99.90;;;;;;4992496;28;20042;-46
2021/12/13 06:17:51;;;;;;;33.33;22.15;;;9.20;99.90;;;;;;4975313;28;20046;-45
2021/12/13 06:20:29;;;;;;;32.22;22.35;;;9.20;99.90;;;;;;4987945;28;20197;-46
2021/12/13 06:23:26;;;;;;;33.78;21.80;;;9.20;99.90;;;;;;4978265;28;20105;-47
2021/12/13 06:26:07;;;;;;;34.55;22.65;;;9.20;99.90;;;;;;4950389;28;20108;-51
2021/12/13 06:28:38;;;;;;;35.40;22.40;;;9.20;99.90;;;;;;4979046;28;20046;-61
2021/12/13 06:31:16;;;;;;;33.90;24.65;;;9.20;99.90;;;;;;4973575;28;20074;-62
2021/12/13 06:34:03;;;;;;;41.92;25.77;;;9.20;99.90;;;;;;4973427;28;20051;-62
2021/12/13 06:36:34;;;;;;;34.58;24.50;;;9.10;99.90;;;;;;4981567;28;20093;-50
2021/12/13 06:39:05;;;;;;;41.38;26.33;;;9.20;99.90;;;;;;4963568;28;20082;-50
2021/12/13 06:41:44;;;;;;;36.83;26.38;;;9.10;99.90;;;;;;4977976;28;20046;-61
2021/12/13 06:44:24;;;;;;;44.50;28.50;;;9.10;99.90;;;;;;4981045;28;20042;-62
2021/12/13 06:47:02;;;;;;;43.33;28.73;;;9.10;99.90;;;;;;4974748;28;20050;-62
2021/12/13 06:49:38;;;;;;;40.72;28.00;;;9.10;99.90;;;;;;4974659;28;20698;-61
2021/12/13 06:52:13;;;;;;;46.35;29.92;;;9.20;99.90;;;;;;4959046;28;20082;-61
2021/12/13 06:54:46;;;;;;;50.03;31.70;;;9.10;99.90;;;;;;4974645;28;20065;-61
2021/12/13 06:57:18;;;;;;;49.13;31.98;;;9.10;99.90;;;;;;4996289;28;20050;-61
2021/12/13 06:59:59;;;;;;;51.05;33.90;;;9.20;99.90;;;;;;4982887;28;20477;-61
2021/12/13 07:02:45;;;;;;;52.65;33.83;;;9.10;99.90;;;;;;4973050;28;20058;-61
2021/12/13 07:05:35;;;;;;;49.13;33.53;;;9.20;99.90;;;;;;4973072;28;20564;-61
2021/12/13 07:08:19;;;;;;;52.22;33.95;;;9.10;99.90;;;;;;4972410;28;20086;-62
2021/12/13 07:10:57;;;;;;;50.63;34.75;;;9.20;99.90;;;;;;4983528;28;20046;-61
2021/12/13 07:13:31;;;;;;;52.58;36.40;;;9.20;99.90;;;;;;4971684;28;20050;-48
2021/12/13 07:16:15;;;;;;;53.22;36.05;;;9.10;99.90;;;;;;4971931;28;20081;-49
2021/12/13 07:18:44;;;;;;;54.35;35.60;;;9.10;99.90;;;;;;4964674;28;20054;-46
2021/12/13 07:21:18;;;;;;;54.08;36.60;;;9.10;99.90;;;;;;5007668;28;20164;-47
2021/12/13 07:24:05;;;;;;;56.85;37.78;;;9.20;99.90;;;;;;4987879;28;20077;-49
2021/12/13 07:26:49;;;;;;;51.85;37.17;;;9.10;99.90;;;;;;5002592;28;20051;-50
2021/12/13 07:29:21;;;;;;;61.33;38.63;;;9.10;99.90;;;;;;4974911;28;20140;-50
2021/12/13 07:32:21;;;;;;;58.72;38.75;;;9.10;99.90;;;;;;5011057;28;20041;-47
2021/12/13 07:35:20;;;;;;;62.70;39.17;;;9.10;99.90;;;;;;4988526;28;20061;-47
2021/12/13 07:37:55;;;;;;;61.65;41.13;;;9.20;99.90;;;;;;4971815;28;20477;-47
2021/12/13 07:40:31;;;;;;;66.47;41.50;;;9.10;99.90;;;;;;4988576;28;20045;-47
2021/12/13 07:43:03;;;;;;;58.95;40.75;;;9.10;99.90;;;;;;5007411;28;20053;-46
2021/12/13 07:45:56;;;;;;;64.78;42.97;;;9.10;99.90;;;;;;4973358;28;20493;-49
2021/12/13 07:48:30;;;;;;;62.60;42.83;;;9.20;99.90;;;;;;5015368;28;20052;-62
2021/12/13 07:51:01;;;;;;;59.78;40.38;;;9.10;99.90;;;;;;5009704;28;20046;-61
2021/12/13 07:53:36;;;;;;;64.93;44.40;;;9.20;99.90;;;;;;5024795;28;20121;-61
2021/12/13 07:56:04;;;;;;;62.65;43.83;;;9.10;99.90;;;;;;5018232;28;20045;-59
2021/12/13 07:58:43;;;;;;;63.85;42.95;;;9.20;99.90;;;;;;5010282;28;20404;-59
2021/12/13 08:01:18;;;;;;;67.25;44.08;;;9.20;99.90;;;;;;5008645;28;20630;-59
2021/12/13 08:03:51;;;;;;;66.10;42.83;;;9.10;99.90;;;;;;5011447;28;20050;-59
2021/12/13 08:06:18;;;;;;;64.95;43.78;;;9.20;99.90;;;;;;5007455;28;20081;-59
2021/12/13 08:08:48;;;;;;;65.18;44.53;;;9.20;99.90;;;;;;5008730;28;20080;-59
2021/12/13 08:11:14;;;;;;;64.07;43.40;;;9.20;99.90;;;;;;4981312;28;20128;-58
2021/12/13 08:13:41;;;;;;;67.50;42.45;;;9.20;99.90;;;;;;5010364;28;20041;-59
2021/12/13 08:16:09;;;;;;;63.08;43.55;;;9.20;99.90;;;;;;5016370;28;20052;-59
2021/12/13 08:18:39;;;;;;;65.85;44.75;;;9.20;99.90;;;;;;5019185;28;20104;-57
2021/12/13 08:21:17;;;;;;;62.83;43.45;;;9.20;99.90;;;;;;5009930;28;20096;-58
2021/12/13 08:23:55;;;;;;;57.25;40.03;;;9.20;99.90;;;;;;5019429;28;20131;-43
2021/12/13 08:26:33;;;;;;;56.00;40.53;;;9.20;99.90;;;;;;4969930;28;20670;-42
2021/12/13 08:29:07;;;;;;;88.20;65.10;;;9.20;99.90;;;;;;4953458;28;20050;-41
2021/12/13 08:31:36;;;;;;;55.38;38.90;;;9.20;99.90;;;;;;5004642;28;20045;-46
2021/12/13 08:34:13;;;;;;;51.78;40.15;;;9.30;99.90;;;;;;4988670;28;20115;-43
2021/12/13 08:36:46;;;;;;;51.85;38.70;;;9.30;99.90;;;;;;5002554;28;20116;-43
2021/12/13 08:39:17;;;;;;;54.47;37.25;;;9.20;99.90;;;;;;4985509;28;20531;-44
2021/12/13 08:41:50;;;;;;;48.38;37.28;;;9.30;99.90;;;;;;4973998;28;20493;-44
2021/12/13 08:44:23;;;;;;;46.78;37.03;;;9.30;99.90;;;;;;4985748;28;20104;-45
2021/12/13 08:46:52;;;;;;;49.35;36.08;;;9.30;99.90;;;;;;4989644;28;20042;-43
2021/12/13 08:49:18;;;;;;;50.92;36.70;;;9.30;99.90;;;;;;4983513;28;20058;-43
2021/12/13 08:52:13;;;;;;;51.03;35.90;;;9.30;99.90;;;;;;4994226;28;20076;-46
2021/12/13 08:55:05;;;;;;;50.28;35.13;;;9.30;99.90;;;;;;4980450;28;20057;-46
2021/12/13 08:57:34;;;;;;;;;;;9.40;99.90;;;;;;4988630;28;20673;-44
2021/12/13 09:00:19;;;;;;;49.05;36.58;;;9.40;99.90;;;;;;5010535;28;19921;-58
2021/12/13 09:03:10;;;;;;;44.90;34.58;;;9.40;99.90;;;;;;4993104;28;20588;-58
2021/12/13 09:05:51;;;;;;;43.58;33.58;;;9.40;99.90;;;;;;4999570;28;20476;-58
2021/12/13 09:08:24;;;;;;;45.10;34.25;;;9.40;99.90;;;;;;5003868;28;20406;-59
2021/12/13 09:11:14;;;;;;;46.25;33.80;;;9.40;99.90;;;;;;4978032;28;20053;-58
2021/12/13 09:13:49;;;;;;;44.58;34.08;;;9.40;99.90;;;;;;4999754;28;20054;-58
2021/12/13 09:16:20;;;;;;;46.55;34.35;;;9.40;99.90;;;;;;5009375;28;20061;-58
2021/12/13 09:19:05;;;;;;;42.10;33.25;;;9.40;99.90;;;;;;4986343;28;20598;-58
2021/12/13 09:21:31;;;;;;;46.85;32.65;;;9.40;99.90;;;;;;4971897;28;20058;-58
2021/12/13 09:23:58;;;;;;;44.20;33.80;;;9.40;99.90;;;;;;4971066;28;20073;-58
2021/12/13 09:26:26;;;;;;;46.25;33.88;;;9.50;99.90;;;;;;4989431;28;20065;-58
2021/12/13 09:29:01;;;;;;;44.30;32.65;;;9.40;99.90;;;;;;4974782;28;20089;-59
2021/12/13 09:31:27;;;;;;;43.25;32.17;;;9.40;99.90;;;;;;5005320;28;20652;-59
2021/12/13 09:33:59;;;;;;;42.10;32.15;;;9.40;99.90;;;;;;5005047;28;20057;-45
2021/12/13 09:36:35;;;;;;;41.25;29.85;;;9.50;99.90;;;;;;4969091;28;20112;-45
2021/12/13 09:39:17;;;;;;;40.58;31.30;;;9.50;99.90;;;;;;5003780;28;20053;-44
2021/12/13 09:41:59;;;;;;;41.10;31.55;;;9.60;99.90;;;;;;4997988;28;20133;-47
2021/12/13 09:44:48;;;;;;;40.83;29.05;;;9.60;99.90;;;;;;5003516;28;20494;-44
2021/12/13 09:47:20;;;;;;;40.55;29.90;;;9.70;99.90;;;;;;4992480;28;20046;-43
2021/12/13 09:49:55;;;;;;;38.30;29.90;;;9.70;99.90;;;;;;5006551;28;20128;-45
2021/12/13 09:52:30;;;;;;;36.28;27.83;;;9.70;99.90;;;;;;5005675;28;20413;-42
2021/12/13 09:55:12;;;;;;;38.45;29.88;;;9.70;99.90;;;;;;5004790;28;20054;-43
2021/12/13 09:57:50;;;;;;;42.70;29.83;;;9.70;99.90;;;;;;4996475;28;20045;-44
2021/12/13 10:00:46;;;;;;;33.63;27.00;;;9.80;99.90;;;;;;5007722;28;20053;-45
2021/12/13 10:03:17;;;;;;;38.30;27.50;;;9.80;99.90;;;;;;4990868;28;20433;-44
2021/12/13 10:05:47;;;;;;;32.55;27.73;;;9.80;99.90;;;;;;4992963;28;20133;-44
2021/12/13 10:08:17;;;;;;;35.55;27.63;;;9.80;99.90;;;;;;4990639;28;20046;-47
2021/12/13 10:10:51;;;;;;;33.17;26.42;;;9.80;99.90;;;;;;4988236;28;20089;-44
2021/12/13 10:13:23;;;;;;;32.92;25.63;;;9.80;99.90;;;;;;5004038;28;20704;-43
2021/12/13 10:15:53;;;;;;;31.27;24.30;;;9.80;99.90;;;;;;4992136;28;20041;-44
2021/12/13 10:18:24;;;;;;;31.52;26.52;;;9.80;99.90;;;;;;4983536;28;20050;-41
2021/12/13 10:21:10;;;;;;;30.88;25.92;;;9.80;99.90;;;;;;5005577;28;20107;-44
2021/12/13 10:23:40;;;;;;;33.95;26.50;;;9.80;99.90;;;;;;5008109;28;20401;-42
2021/12/13 10:26:10;;;;;;;29.80;25.02;;;9.80;99.90;;;;;;5007016;28;20045;-42
2021/12/13 10:28:39;;;;;;;33.20;24.90;;;9.90;99.90;;;;;;4987928;28;20046;-43
2021/12/13 10:31:11;;;;;;;34.47;24.73;;;9.90;99.90;;;;;;4986250;28;20042;-42
2021/12/13 10:33:39;;;;;;;34.33;23.42;;;9.90;99.90;;;;;;4986970;28;20045;-47
2021/12/13 10:36:08;;;;;;;32.15;24.25;;;10.00;99.90;;;;;;4979086;28;20045;-44
2021/12/13 10:38:56;;;;;;;29.90;23.60;;;10.00;99.90;;;;;;5016032;28;20042;-46
2021/12/13 10:41:37;;;;;;;28.23;23.17;;;10.00;99.90;;;;;;4994825;28;20070;-59
2021/12/13 10:44:10;;;;;;;36.88;23.80;;;10.00;99.90;;;;;;4992767;28;20081;-59
2021/12/13 10:46:44;;;;;;;31.50;24.58;;;10.00;99.90;;;;;;4991313;28;20042;-59
2021/12/13 10:49:22;;;;;;;29.13;23.35;;;10.00;99.90;;;;;;5005102;28;20456;-59
2021/12/13 10:52:00;;;;;;;31.65;23.83;;;10.00;99.90;;;;;;5007816;28;20045;-58
2021/12/13 10:54:35;;;;;;;32.17;23.85;;;10.00;99.90;;;;;;4997661;28;20136;-59
2021/12/13 10:57:11;;;;;;;30.02;24.38;;;10.00;99.90;;;;;;4998426;28;20121;-59
2021/12/13 10:59:38;;;;;;;27.95;21.50;;;10.00;99.90;;;;;;5006466;28;20046;-58
2021/12/13 11:02:16;;;;;;;27.85;22.67;;;10.00;99.90;;;;;;5004651;28;20397;-43
2021/12/13 11:05:06;;;;;;;28.73;22.67;;;10.00;99.90;;;;;;4993069;28;20161;-44
2021/12/13 11:07:32;;;;;;;29.63;22.08;;;10.10;99.90;;;;;;4989109;28;20053;-43
2021/12/13 11:09:59;;;;;;;31.95;22.00;;;10.10;99.90;;;;;;5011806;28;20311;-47
2021/12/13 11:12:32;;;;;;;28.98;21.98;;;10.10;99.90;;;;;;5014975;28;20080;-42
2021/12/13 11:15:02;;;;;;;26.13;20.27;;;10.10;99.90;;;;;;5007084;28;20057;-43
2021/12/13 11:17:32;;;;;;;28.83;22.05;;;10.10;99.90;;;;;;5005747;28;20128;-43
2021/12/13 11:20:06;;;;;;;29.02;21.88;;;10.10;99.90;;;;;;5000262;28;21781;-43
2021/12/13 11:22:33;;;;;;;26.00;20.88;;;10.10;99.90;;;;;;5011277;28;20060;-44
2021/12/13 11:25:17;;;;;;;25.83;20.35;;;10.10;99.90;;;;;;4988934;28;20049;-42
2021/12/13 11:27:43;;;;;;;28.95;22.30;;;10.10;99.90;;;;;;5007100;28;20034;-43
2021/12/13 11:30:16;;;;;;;26.45;20.90;;;10.10;99.90;;;;;;4989081;28;20045;-44
2021/12/13 11:32:57;;;;;;;23.90;19.70;;;10.10;99.90;;;;;;5000528;28;20056;-44
2021/12/13 11:36:01;;;;;;;29.38;21.63;;;10.10;99.90;;;;;;5004611;28;20045;-47
2021/12/13 11:38:55;;;;;;;27.08;21.52;;;10.10;99.90;;;;;;5006565;28;20374;-43
2021/12/13 11:41:49;;;;;;;27.08;20.02;;;10.10;99.90;;;;;;4992038;28;20508;-42
2021/12/13 11:45:00;;;;;;;27.80;21.02;;;10.10;99.90;;;;;;4991557;28;20054;-44
2021/12/13 11:47:51;;;;;;;27.13;20.20;;;10.10;99.90;;;;;;4985739;28;20101;-44
2021/12/13 11:50:38;;;;;;;24.95;19.75;;;10.10;99.90;;;;;;5007223;28;20050;-44
2021/12/13 11:53:48;;;;;;;25.52;21.27;;;10.10;99.90;;;;;;5011769;28;20046;-44
2021/12/13 11:56:52;;;;;;;24.73;19.85;;;10.10;99.90;;;;;;5001786;28;20057;-44
2021/12/13 11:59:50;;;;;;;26.80;20.75;;;10.10;99.90;;;;;;5004570;28;20064;-42
2021/12/13 12:02:41;;;;;;;25.42;20.27;;;10.10;99.90;;;;;;5005799;28;20050;-58
2021/12/13 12:05:37;;;;;;;23.88;19.63;;;10.10;99.90;;;;;;5000200;28;20050;-59
2021/12/13 12:08:40;;;;;;;27.55;19.80;;;10.10;99.90;;;;;;4927277;28;20720;-59
2021/12/13 12:11:30;;;;;;;23.13;18.60;;;10.10;99.90;;;;;;5001633;28;20092;-59
2021/12/13 12:14:05;;;;;;;26.77;20.58;;;10.10;99.90;;;;;;4997132;28;20418;-59
2021/12/13 12:16:50;;;;;;;26.98;20.52;;;10.10;99.90;;;;;;4999118;28;20089;-59
2021/12/13 12:19:24;;;;;;;26.17;19.30;;;10.10;99.90;;;;;;4971119;28;20058;-59
2021/12/13 12:21:52;;;;;;;25.80;20.00;;;10.10;99.90;;;;;;4997833;28;20058;-43
2021/12/13 12:24:44;;;;;;;27.02;19.95;;;10.20;99.90;;;;;;5002712;28;20482;-43
2021/12/13 12:27:17;;;;;;;24.50;19.50;;;10.10;99.90;;;;;;4999732;28;20057;-43
2021/12/13 12:29:48;;;;;;;27.60;20.33;;;10.10;99.90;;;;;;4997652;28;20103;-58
2021/12/13 12:32:20;;;;;;;27.80;20.98;;;10.10;99.90;;;;;;4981576;28;20078;-59
2021/12/13 12:34:55;;;;;;;25.63;20.27;;;10.10;99.90;;;;;;4989596;28;20497;-59
2021/12/13 12:37:49;;;;;;;25.73;20.58;;;10.10;99.90;;;;;;4997634;28;20421;-59
2021/12/13 12:40:35;;;;;;;23.35;19.20;;;10.10;99.90;;;;;;5001682;28;20057;-59
2021/12/13 12:43:07;;;;;;;26.15;19.50;;;10.10;99.90;;;;;;5006377;28;20081;-60
2021/12/13 12:45:33;;;;;;;25.85;20.27;;;10.10;99.90;;;;;;4984650;28;20389;-59
2021/12/13 12:48:09;;;;;;;27.02;21.75;;;10.10;99.90;;;;;;5007771;28;20382;-59
2021/12/13 12:50:45;;;;;;;23.50;20.40;;;10.20;99.90;;;;;;5016220;28;20053;-58
2021/12/13 12:53:22;;;;;;;27.38;21.00;;;10.10;99.90;;;;;;4989488;28;20049;-59
2021/12/13 12:55:57;;;;;;;26.42;20.88;;;10.20;99.90;;;;;;4983551;28;20057;-59
2021/12/13 12:58:34;;;;;;;27.50;21.00;;;10.20;99.90;;;;;;5009723;28;20411;-59
2021/12/13 13:01:13;;;;;;;22.77;18.73;;;10.20;99.90;;;;;;5008220;28;20042;-59
2021/12/13 13:03:40;;;;;;;27.35;19.35;;;10.20;99.90;;;;;;4990523;28;20077;-59
2021/12/13 13:06:13;;;;;;;25.40;18.20;;;10.20;99.90;;;;;;4957417;28;20053;-59
2021/12/13 13:08:42;;;;;;;26.52;20.20;;;10.20;99.90;;;;;;5007917;28;20044;-59
2021/12/13 13:11:34;;;;;;;25.63;21.60;;;10.30;99.90;;;;;;5017163;28;20607;-59
2021/12/13 13:14:14;;;;;;;23.27;19.25;;;10.40;99.90;;;;;;5003292;28;20057;-59
2021/12/13 13:16:47;;;;;;;23.55;19.60;;;10.40;99.90;;;;;;4993489;28;20486;-59
2021/12/13 13:19:41;;;;;;;28.02;19.55;;;10.40;99.90;;;;;;5006178;28;20057;-59
2021/12/13 13:22:17;;;;;;;24.85;18.13;;;10.40;99.90;;;;;;5003049;28;20393;-58
2021/12/13 13:24:47;;;;;;;25.35;19.25;;;10.40;99.90;;;;;;4985042;28;20132;-44
2021/12/13 13:27:14;;;;;;;23.95;18.77;;;10.50;99.90;;;;;;4998191;28;20699;-43
2021/12/13 13:29:40;;;;;;;20.95;17.67;;;10.40;99.90;;;;;;4955741;28;20467;-45
2021/12/13 13:32:12;;;;;;;24.20;18.67;;;10.40;99.90;;;;;;5008978;28;20460;-48